createdAt,value
2023-03-15T00:02:07.450Z,99708.56
2023-03-15T00:04:37.095Z,99714.09
2023-03-15T00:07:06.589Z,99605.97
2023-03-15T00:09:34.409Z,99715.97
2023-03-15T00:12:02.529Z,99726.50
2023-03-15T00:14:31.568Z,99722.16
2023-03-15T00:16:59.520Z,99709.41
2023-03-15T00:19:27.401Z,99629.13
2023-03-15T00:21:55.291Z,99718.03
2023-03-15T00:24:25.245Z,99737.03
2023-03-15T00:26:53.177Z,99739.94
2023-03-15T00:29:21.132Z,99693.75
2023-03-15T00:31:50.040Z,99751.50
2023-03-15T00:34:18.950Z,99742.84
2023-03-15T00:36:46.975Z,99744.56
2023-03-15T00:39:15.284Z,99742.19
2023-03-15T00:41:45.651Z,99697.44
2023-03-15T00:44:13.967Z,99752.94
2023-03-15T00:46:41.842Z,99718.47
2023-03-15T00:49:09.888Z,99757.72
2023-03-15T00:51:37.842Z,99696.06
2023-03-15T00:54:05.848Z,99757.56
2023-03-15T00:56:33.710Z,99739.88
2023-03-15T00:59:03.696Z,99770.22
2023-03-15T01:01:31.818Z,99728.91
2023-03-15T01:03:59.778Z,99762.16
2023-03-15T01:06:29.695Z,99768.41
2023-03-15T01:08:59.981Z,99489.06
2023-03-15T01:11:29.764Z,99719.66
2023-03-15T01:13:59.318Z,99761.44
2023-03-15T01:16:28.950Z,99763.63
2023-03-15T01:18:57.460Z,99754.03
2023-03-15T01:21:26.314Z,99760.56
2023-03-15T01:23:54.871Z,99758.66
2023-03-15T01:26:23.376Z,99744.63
2023-03-15T01:28:51.897Z,99774.41
2023-03-15T01:31:23.885Z,99751.41
2023-03-15T01:33:53.388Z,99776.53
2023-03-15T01:36:22.026Z,99736.34
2023-03-15T01:38:50.791Z,99775.50
2023-03-15T01:41:23.210Z,99770.22
2023-03-15T01:43:52.169Z,99742.59
2023-03-15T01:46:29.114Z,99747.25
2023-03-15T01:49:25.705Z,99778.34
2023-03-15T01:51:58.480Z,99772.75
2023-03-15T01:54:35.087Z,99777.44
2023-03-15T01:57:07.264Z,99790.94
2023-03-15T01:59:39.685Z,99755.28
2023-03-15T02:02:08.947Z,99746.81
2023-03-15T02:04:46.543Z,99786.00
2023-03-15T02:07:19.313Z,99795.28
2023-03-15T02:09:55.383Z,99787.22
2023-03-15T02:12:23.247Z,99804.00
2023-03-15T02:14:54.083Z,99801.16
2023-03-15T02:17:30.043Z,99769.19
2023-03-15T02:20:07.114Z,99811.94
2023-03-15T02:22:45.919Z,99650.84
2023-03-15T02:25:22.847Z,99816.91
2023-03-15T02:27:52.761Z,99804.16
2023-03-15T02:30:21.064Z,99777.91
2023-03-15T02:32:49.341Z,99809.31
2023-03-15T02:35:25.226Z,99744.72
2023-03-15T02:37:53.966Z,99806.75
2023-03-15T02:40:23.825Z,99808.22
2023-03-15T02:42:57.187Z,99811.28
2023-03-15T02:45:27.491Z,99795.66
2023-03-15T02:47:55.962Z,99817.09
2023-03-15T02:50:24.146Z,99785.28
2023-03-15T02:52:52.813Z,99816.00
2023-03-15T02:55:21.757Z,99800.28
2023-03-15T02:57:50.009Z,99822.34
2023-03-15T03:00:19.885Z,99826.88
2023-03-15T03:02:49.358Z,99794.69
2023-03-15T03:05:17.849Z,99822.88
2023-03-15T03:07:46.880Z,99831.47
2023-03-15T03:10:17.169Z,99831.91
2023-03-15T03:12:53.580Z,99791.56
2023-03-15T03:15:28.566Z,99847.13
2023-03-15T03:17:56.834Z,99837.41
2023-03-15T03:20:25.395Z,99841.47
2023-03-15T03:22:55.928Z,99865.97
2023-03-15T03:25:27.017Z,99874.78
2023-03-15T03:27:57.309Z,99883.03
2023-03-15T03:30:28.565Z,99876.47
2023-03-15T03:32:56.740Z,99864.09
2023-03-15T03:35:24.650Z,99884.09
2023-03-15T03:37:54.073Z,99882.41
2023-03-15T03:40:31.837Z,99872.31
2023-03-15T03:43:00.035Z,99892.31
2023-03-15T03:45:29.290Z,99890.72
2023-03-15T03:47:59.407Z,99843.25
2023-03-15T03:50:27.654Z,99904.84
2023-03-15T03:52:55.755Z,99880.34
2023-03-15T03:55:27.924Z,99865.44
2023-03-15T03:57:55.734Z,99919.56
2023-03-15T04:00:40.299Z,99913.03
2023-03-15T04:03:09.623Z,99878.03
2023-03-15T04:05:39.788Z,99920.00
2023-03-15T04:08:07.718Z,99935.91
2023-03-15T04:10:39.733Z,99925.28
2023-03-15T04:13:07.774Z,99943.47
2023-03-15T04:15:35.903Z,99937.84
2023-03-15T04:18:05.961Z,99956.66
2023-03-15T04:20:39.761Z,99963.31
2023-03-15T04:23:08.428Z,99860.16
2023-03-15T04:25:55.716Z,99905.22
2023-03-15T04:28:40.376Z,99955.88
2023-03-15T04:31:27.119Z,99965.69
2023-03-15T04:34:15.251Z,99976.31
2023-03-15T04:37:01.643Z,99951.50
2023-03-15T04:39:55.704Z,99948.78
2023-03-15T04:42:35.523Z,99986.47
2023-03-15T04:45:14.425Z,99979.03
2023-03-15T04:48:02.205Z,99873.88
2023-03-15T04:50:39.628Z,99988.50
2023-03-15T04:53:39.066Z,99980.75
2023-03-15T04:56:42.155Z,99973.66
2023-03-15T04:59:22.910Z,99973.56
2023-03-15T05:02:12.970Z,100000.75
2023-03-15T05:04:59.309Z,100010.91
2023-03-15T05:07:42.326Z,100004.47
2023-03-15T05:10:33.410Z,100002.41
2023-03-15T05:13:19.162Z,100007.78
2023-03-15T05:16:07.641Z,100013.00
2023-03-15T05:18:38.108Z,100013.44
2023-03-15T05:21:28.999Z,100022.91
2023-03-15T05:24:16.909Z,100018.53
2023-03-15T05:27:14.280Z,100022.97
2023-03-15T05:30:10.580Z,100028.13
2023-03-15T05:33:05.427Z,100041.31
2023-03-15T05:35:45.533Z,100037.97
2023-03-15T05:38:39.667Z,100042.50
2023-03-15T05:41:19.422Z,100049.50
2023-03-15T05:44:01.717Z,100047.69
2023-03-15T05:46:57.371Z,100049.38
2023-03-15T05:49:38.466Z,100015.16
2023-03-15T05:52:26.732Z,100036.09
2023-03-15T05:55:10.476Z,100012.56
2023-03-15T05:57:58.139Z,100076.47
2023-03-15T06:00:44.317Z,100080.03
2023-03-15T06:03:25.150Z,100090.72
2023-03-15T06:05:59.246Z,100038.84
2023-03-15T06:08:37.015Z,100099.97
2023-03-15T06:11:05.214Z,100094.31
2023-03-15T06:13:34.884Z,100104.06
2023-03-15T06:16:08.342Z,100103.31
2023-03-15T06:18:40.750Z,100111.97
2023-03-15T06:21:09.915Z,100113.66
2023-03-15T06:23:38.606Z,100090.78
2023-03-15T06:26:06.761Z,100062.00
2023-03-15T06:28:37.291Z,100137.06
2023-03-15T06:31:08.787Z,100114.47
2023-03-15T06:33:43.172Z,100152.78
2023-03-15T06:36:12.750Z,100150.41
2023-03-15T06:38:41.830Z,100154.84
2023-03-15T06:41:09.858Z,100162.88
2023-03-15T06:43:39.917Z,100100.75
2023-03-15T06:46:07.978Z,100168.84
2023-03-15T06:48:36.128Z,100170.38
2023-03-15T06:51:05.921Z,100163.72
2023-03-15T06:53:34.688Z,100169.56
2023-03-15T06:56:02.711Z,100177.41
2023-03-15T06:58:30.828Z,100145.88
2023-03-15T07:01:00.019Z,100171.69
2023-03-15T07:03:27.884Z,100190.94
2023-03-15T07:05:55.856Z,100191.00
2023-03-15T07:08:25.623Z,100185.28
2023-03-15T07:10:53.785Z,100050.47
2023-03-15T07:13:21.623Z,100193.22
2023-03-15T07:15:53.243Z,100194.84
2023-03-15T07:18:22.568Z,100191.16
2023-03-15T07:20:57.052Z,100199.56
2023-03-15T07:23:24.952Z,100153.34
2023-03-15T07:25:55.467Z,100145.19
2023-03-15T07:28:25.042Z,100191.72
2023-03-15T07:30:57.753Z,100217.28
2023-03-15T07:33:28.558Z,100218.72
2023-03-15T07:35:57.204Z,100220.31
2023-03-15T07:38:26.570Z,100195.38
2023-03-15T07:40:54.523Z,100234.75
2023-03-15T07:43:22.755Z,100230.13
2023-03-15T07:45:58.053Z,100239.09
2023-03-15T07:48:29.342Z,100192.59
2023-03-15T07:50:57.908Z,100241.19
2023-03-15T07:53:25.929Z,100247.88
2023-03-15T07:55:54.146Z,100233.00
2023-03-15T07:58:22.050Z,100262.00
2023-03-15T08:00:49.888Z,100165.66
2023-03-15T08:03:18.259Z,100203.34
2023-03-15T08:05:47.530Z,100261.72
2023-03-15T08:08:15.347Z,100265.84
2023-03-15T08:10:44.674Z,100269.41
2023-03-15T08:13:12.591Z,100268.88
2023-03-15T08:15:40.813Z,100249.44
2023-03-15T08:18:08.724Z,100276.66
2023-03-15T08:20:36.562Z,100289.25
2023-03-15T08:23:06.363Z,100282.81
2023-03-15T08:25:34.174Z,100290.72
2023-03-15T08:28:02.022Z,100268.63
2023-03-15T08:30:29.955Z,100302.09
2023-03-15T08:32:57.990Z,100305.88
2023-03-15T08:35:25.979Z,100311.84
2023-03-15T08:37:53.885Z,100316.00
2023-03-15T08:40:25.785Z,100303.00
2023-03-15T08:42:54.440Z,100324.34
2023-03-15T08:45:23.944Z,100296.13
2023-03-15T08:47:55.403Z,100331.84
2023-03-15T08:50:23.358Z,100317.09
2023-03-15T08:52:51.751Z,100347.63
2023-03-15T08:55:19.761Z,100344.50
2023-03-15T08:57:49.373Z,100351.00
2023-03-15T09:00:20.748Z,100307.72
2023-03-15T09:02:49.886Z,100336.28
2023-03-15T09:05:18.402Z,100362.16
2023-03-15T09:07:47.262Z,100356.88
2023-03-15T09:10:17.295Z,100302.47
2023-03-15T09:12:47.445Z,100364.00
2023-03-15T09:15:17.063Z,100371.19
2023-03-15T09:17:45.121Z,100365.84
2023-03-15T09:20:18.741Z,100373.75
2023-03-15T09:22:52.650Z,100363.78
2023-03-15T09:25:21.458Z,100375.91
2023-03-15T09:27:49.450Z,100355.97
2023-03-15T09:30:19.232Z,100342.00
2023-03-15T09:32:47.152Z,100387.84
2023-03-15T09:35:17.533Z,100389.97
2023-03-15T09:37:45.350Z,100384.00
2023-03-15T09:40:18.967Z,100393.78
2023-03-15T09:43:07.183Z,100301.16
2023-03-15T09:46:02.092Z,100233.34
2023-03-15T09:48:33.733Z,100403.81
2023-03-15T09:51:07.755Z,100404.06
2023-03-15T09:53:42.784Z,100416.66
2023-03-15T09:56:23.905Z,100407.03
2023-03-15T09:58:56.091Z,100409.97
2023-03-15T10:01:30.228Z,100386.69
2023-03-15T10:03:58.389Z,100411.41
2023-03-15T10:06:36.461Z,100410.22
2023-03-15T10:09:14.960Z,100413.16
2023-03-15T10:11:51.040Z,100416.34
2023-03-15T10:14:33.744Z,100403.84
2023-03-15T10:17:08.374Z,100416.03
2023-03-15T10:19:45.919Z,100417.81
2023-03-15T10:22:22.219Z,100419.50
2023-03-15T10:24:52.973Z,100389.69
2023-03-15T10:27:23.502Z,100421.03
2023-03-15T10:29:53.902Z,100421.91
2023-03-15T10:32:28.415Z,100395.28
2023-03-15T10:34:58.717Z,100316.03
2023-03-15T10:37:26.843Z,100420.91
2023-03-15T10:39:57.508Z,100426.56
2023-03-15T10:42:27.816Z,100423.72
2023-03-15T10:44:55.553Z,100420.16
2023-03-15T10:47:26.588Z,100396.91
2023-03-15T10:49:58.455Z,100400.19
2023-03-15T10:52:29.565Z,100421.53
2023-03-15T10:55:02.473Z,100413.09
2023-03-15T10:57:36.709Z,100421.13
2023-03-15T11:00:19.826Z,100426.19
2023-03-15T11:02:53.078Z,100423.97
2023-03-15T11:05:21.519Z,100403.31
2023-03-15T11:07:56.964Z,100432.38
2023-03-15T11:10:26.951Z,100435.09
2023-03-15T11:13:13.575Z,100432.59
2023-03-15T11:15:50.292Z,100427.84
2023-03-15T11:18:21.573Z,100439.09
2023-03-15T11:20:49.908Z,100444.59
2023-03-15T11:23:21.882Z,100388.91
2023-03-15T11:25:50.618Z,100456.25
2023-03-15T11:28:21.916Z,100458.75
2023-03-15T11:30:50.824Z,100461.19
2023-03-15T11:33:38.915Z,100454.78
2023-03-15T11:36:12.444Z,100437.06
2023-03-15T11:38:44.177Z,100458.50
2023-03-15T11:41:28.218Z,100456.44
2023-03-15T11:44:03.705Z,100463.59
2023-03-15T11:46:37.828Z,100444.91
2023-03-15T11:49:15.328Z,100424.25
2023-03-15T11:51:43.365Z,100333.56
2023-03-15T11:54:15.584Z,100423.00
2023-03-15T11:56:53.109Z,100470.63
2023-03-15T11:59:26.581Z,100453.16
2023-03-15T12:01:58.578Z,100472.31
2023-03-15T12:04:52.600Z,100467.97
2023-03-15T12:07:34.746Z,100446.75
2023-03-15T12:10:30.565Z,100469.81
2023-03-15T12:13:00.557Z,100471.69
2023-03-15T12:15:49.089Z,100480.03
2023-03-15T12:18:40.833Z,100454.63
2023-03-15T12:21:13.903Z,100463.47
2023-03-15T12:23:46.405Z,100453.00
2023-03-15T12:26:26.604Z,100471.53
2023-03-15T12:29:06.820Z,100473.78
2023-03-15T12:31:53.560Z,100475.09
2023-03-15T12:34:28.071Z,100461.25
2023-03-15T12:37:04.082Z,100459.06
2023-03-15T12:39:45.092Z,100472.28
2023-03-15T12:42:15.855Z,100471.56
2023-03-15T12:44:44.962Z,100471.16
2023-03-15T12:47:13.551Z,100464.66
2023-03-15T12:49:43.800Z,100377.31
2023-03-15T12:52:28.424Z,100470.16
2023-03-15T12:55:02.166Z,100443.53
2023-03-15T12:57:32.249Z,100481.25
2023-03-15T13:00:06.260Z,100478.34
2023-03-15T13:02:43.206Z,100476.31
2023-03-15T13:05:20.606Z,100477.16
2023-03-15T13:08:05.673Z,100494.34
2023-03-15T13:11:00.310Z,100476.31
2023-03-15T13:14:01.810Z,100498.88
2023-03-15T13:16:38.186Z,100497.78
2023-03-15T13:19:17.683Z,100507.50
2023-03-15T13:22:00.423Z,100522.97
2023-03-15T13:24:38.839Z,100534.88
2023-03-15T13:27:14.479Z,100547.88
2023-03-15T13:29:42.469Z,100488.28
2023-03-15T13:32:15.374Z,100532.81
2023-03-15T13:34:45.746Z,100492.59
2023-03-15T13:37:16.614Z,100541.28
2023-03-15T13:39:57.472Z,100560.47
2023-03-15T13:42:26.303Z,100562.91
2023-03-15T13:45:14.292Z,100554.44
2023-03-15T13:47:44.073Z,100523.16
2023-03-15T13:50:16.149Z,100557.34
2023-03-15T13:52:44.769Z,100541.56
2023-03-15T13:55:17.045Z,100550.66
2023-03-15T13:57:45.478Z,100556.97
2023-03-15T14:00:17.043Z,100501.69
2023-03-15T14:02:54.102Z,100559.91
2023-03-15T14:05:27.375Z,100543.13
2023-03-15T14:08:02.816Z,100564.97
2023-03-15T14:10:34.614Z,100567.59
2023-03-15T14:13:22.370Z,100565.25
2023-03-15T14:15:50.781Z,100571.44
2023-03-15T14:18:24.034Z,100570.81
2023-03-15T14:20:59.868Z,100557.56
2023-03-15T14:23:30.090Z,100571.53
2023-03-15T14:26:13.754Z,100551.16
2023-03-15T14:28:43.658Z,100576.44
2023-03-15T14:31:24.122Z,100521.78
2023-03-15T14:34:00.806Z,100553.34
2023-03-15T14:36:35.385Z,100569.22
2023-03-15T14:39:03.372Z,100566.06
2023-03-15T14:41:34.125Z,100578.56
2023-03-15T14:44:03.222Z,100562.69
2023-03-15T14:46:32.401Z,100495.16
2023-03-15T14:49:00.412Z,100550.34
2023-03-15T14:51:29.874Z,100561.38
2023-03-15T14:53:59.941Z,100578.16
2023-03-15T14:56:28.145Z,100475.06
2023-03-15T14:58:57.354Z,100555.22
2023-03-15T15:01:28.057Z,100586.91
2023-03-15T15:03:59.756Z,100589.41
2023-03-15T15:06:29.453Z,100589.28
2023-03-15T15:08:59.715Z,100592.66
2023-03-15T15:11:27.795Z,100593.50
2023-03-15T15:13:57.753Z,100593.34
2023-03-15T15:16:25.794Z,100592.06
2023-03-15T15:18:53.700Z,100597.16
2023-03-15T15:21:28.239Z,100559.31
2023-03-15T15:23:59.378Z,100553.69
2023-03-15T15:26:29.046Z,100598.66
2023-03-15T15:28:58.477Z,100571.25
2023-03-15T15:31:28.282Z,100580.88
2023-03-15T15:33:57.598Z,100599.41
2023-03-15T15:36:27.945Z,100598.56
2023-03-15T15:38:56.483Z,100571.06
2023-03-15T15:41:26.073Z,100583.91
2023-03-15T15:43:54.569Z,100598.94
2023-03-15T15:46:24.319Z,100598.28
2023-03-15T15:48:52.802Z,100601.81
2023-03-15T15:51:28.843Z,100608.69
2023-03-15T15:53:59.170Z,100600.94
2023-03-15T15:56:32.982Z,100592.09
2023-03-15T15:59:03.078Z,100605.44
2023-03-15T16:01:32.943Z,100584.28
2023-03-15T16:04:01.988Z,100608.50
2023-03-15T16:06:29.948Z,100579.91
2023-03-15T16:08:58.263Z,100551.47
2023-03-15T16:11:26.908Z,100595.75
2023-03-15T16:13:54.979Z,100423.97
2023-03-15T16:16:23.385Z,100624.31
2023-03-15T16:18:52.768Z,100614.19
2023-03-15T16:21:27.629Z,100599.59
2023-03-15T16:23:59.491Z,100484.78
2023-03-15T16:26:27.503Z,100570.75
2023-03-15T16:28:55.704Z,100569.69
2023-03-15T16:31:23.864Z,100564.53
2023-03-15T16:33:53.154Z,100596.00
2023-03-15T16:36:23.473Z,100627.91
2023-03-15T16:38:51.106Z,100628.66
2023-03-15T16:41:19.138Z,100636.75
2023-03-15T16:43:49.205Z,100612.97
2023-03-15T16:46:17.759Z,100640.41
2023-03-15T16:48:45.666Z,100639.63
2023-03-15T16:51:17.199Z,100607.28
2023-03-15T16:53:45.673Z,100642.63
2023-03-15T16:56:16.316Z,100541.75
2023-03-15T16:58:45.646Z,100635.13
2023-03-15T17:01:13.707Z,100648.69
2023-03-15T17:03:41.672Z,100649.75
2023-03-15T17:06:20.151Z,100652.69
2023-03-15T17:08:48.434Z,100650.09
2023-03-15T17:11:17.252Z,100659.75
2023-03-15T17:13:45.248Z,100663.50
2023-03-15T17:16:13.608Z,100661.94
2023-03-15T17:18:42.956Z,100666.44
2023-03-15T17:21:14.339Z,100574.28
2023-03-15T17:23:44.088Z,100569.25
2023-03-15T17:26:14.752Z,100674.56
2023-03-15T17:28:43.669Z,100675.50
2023-03-15T17:31:31.039Z,100685.31
2023-03-15T17:33:59.452Z,100686.44
2023-03-15T17:36:30.940Z,100678.84
2023-03-15T17:39:00.371Z,100671.88
2023-03-15T17:41:31.445Z,100687.91
2023-03-15T17:43:59.803Z,100689.00
2023-03-15T17:46:30.187Z,100675.91
2023-03-15T17:48:59.064Z,100691.09
2023-03-15T17:51:29.019Z,100691.00
2023-03-15T17:53:59.251Z,100690.13
2023-03-15T17:56:28.339Z,100699.03
2023-03-15T17:58:56.433Z,100692.94
2023-03-15T18:01:27.425Z,100616.63
2023-03-15T18:03:57.045Z,100673.06
2023-03-15T18:06:25.282Z,100703.06
2023-03-15T18:08:53.263Z,100705.97
2023-03-15T18:11:25.458Z,100707.75
2023-03-15T18:13:55.136Z,100702.34
2023-03-15T18:16:23.506Z,100705.91
2023-03-15T18:18:51.376Z,100670.72
2023-03-15T18:21:21.898Z,100716.72
2023-03-15T18:23:50.659Z,100720.28
2023-03-15T18:26:19.642Z,100719.47
2023-03-15T18:28:49.010Z,100722.97
2023-03-15T18:31:20.437Z,100724.78
2023-03-15T18:33:48.660Z,100694.88
2023-03-15T18:36:16.625Z,100726.53
2023-03-15T18:38:45.088Z,100741.75
2023-03-15T18:41:18.166Z,100727.66
2023-03-15T18:43:49.746Z,100634.34
2023-03-15T18:46:21.290Z,100727.81
2023-03-15T18:48:49.891Z,100730.47
2023-03-15T18:51:18.471Z,100728.66
2023-03-15T18:53:47.020Z,100730.50
2023-03-15T18:56:20.619Z,100730.47
2023-03-15T18:58:49.603Z,100670.63
2023-03-15T19:01:19.966Z,100733.19
2023-03-15T19:03:47.814Z,100741.19
2023-03-15T19:06:15.790Z,100735.94
2023-03-15T19:08:43.765Z,100735.94
2023-03-15T19:11:11.962Z,100738.59
2023-03-15T19:13:39.788Z,100740.38
2023-03-15T19:16:08.067Z,100736.94
2023-03-15T19:18:40.769Z,100735.16
2023-03-15T19:21:08.592Z,100743.13
2023-03-15T19:23:36.537Z,100724.56
2023-03-15T19:26:05.051Z,100754.59
2023-03-15T19:28:33.064Z,100742.22
2023-03-15T19:31:00.975Z,100746.66
2023-03-15T19:33:29.066Z,100751.94
2023-03-15T19:35:58.313Z,100736.09
2023-03-15T19:38:26.351Z,100762.56
2023-03-15T19:40:56.703Z,100737.00
2023-03-15T19:43:24.629Z,100764.34
2023-03-15T19:45:52.752Z,100752.88
2023-03-15T19:48:21.348Z,100750.25
2023-03-15T19:50:49.486Z,100764.34
2023-03-15T19:53:19.074Z,100765.25
2023-03-15T19:55:46.915Z,100767.00
2023-03-15T19:58:14.698Z,100764.34
2023-03-15T20:00:42.625Z,100780.25
2023-03-15T20:03:12.531Z,100775.84
2023-03-15T20:05:40.513Z,100786.41
2023-03-15T20:08:10.063Z,100760.81
2023-03-15T20:10:39.258Z,100771.41
2023-03-15T20:13:09.201Z,100678.81
2023-03-15T20:15:37.398Z,100787.28
2023-03-15T20:18:08.179Z,100786.41
2023-03-15T20:20:36.031Z,100781.13
2023-03-15T20:23:03.899Z,100793.47
2023-03-15T20:25:31.773Z,100787.28
2023-03-15T20:28:01.183Z,100803.19
2023-03-15T20:30:29.021Z,100806.69
2023-03-15T20:32:56.982Z,100781.97
2023-03-15T20:35:24.922Z,100812.88
2023-03-15T20:37:53.556Z,100800.53
2023-03-15T20:40:21.968Z,100819.91
2023-03-15T20:42:49.933Z,100830.47
2023-03-15T20:45:19.243Z,100825.16
2023-03-15T20:47:47.149Z,100803.97
2023-03-15T20:50:15.061Z,100793.34
2023-03-15T20:52:43.606Z,100807.50
2023-03-15T20:55:12.321Z,100749.22
2023-03-15T20:57:42.121Z,100829.56
2023-03-15T21:00:12.594Z,100827.78
2023-03-15T21:02:41.848Z,100826.03
2023-03-15T21:05:10.461Z,100824.22
2023-03-15T21:07:38.490Z,100803.88
2023-03-15T21:10:07.373Z,100825.97
2023-03-15T21:12:35.231Z,100824.22
2023-03-15T21:15:03.178Z,100801.25
2023-03-15T21:17:31.013Z,100820.69
2023-03-15T21:20:00.739Z,100806.44
2023-03-15T21:22:28.586Z,100819.69
2023-03-15T21:24:56.582Z,100816.19
2023-03-15T21:27:26.001Z,100749.94
2023-03-15T21:29:53.920Z,100785.25
2023-03-15T21:32:21.790Z,100810.88
2023-03-15T21:34:49.566Z,100786.22
2023-03-15T21:37:18.843Z,100817.19
2023-03-15T21:39:46.737Z,100796.84
2023-03-15T21:42:14.738Z,100824.19
2023-03-15T21:44:42.764Z,100817.97
2023-03-15T21:47:11.263Z,100815.34
2023-03-15T21:49:39.066Z,100792.28
2023-03-15T21:52:07.238Z,100755.19
2023-03-15T21:54:36.522Z,100821.38
2023-03-15T21:57:04.831Z,100827.59
2023-03-15T21:59:32.775Z,100726.81
2023-03-15T22:02:02.010Z,100800.09
2023-03-15T22:04:30.257Z,100811.59
2023-03-15T22:06:58.073Z,100831.06
2023-03-15T22:09:26.190Z,100827.53
2023-03-15T22:11:55.416Z,100824.88
2023-03-15T22:14:23.193Z,100829.22
2023-03-15T22:16:51.554Z,100826.53
2023-03-15T22:19:19.521Z,100819.56
2023-03-15T22:21:47.447Z,100792.19
2023-03-15T22:24:15.314Z,100824.00
2023-03-15T22:26:43.954Z,100816.00
2023-03-15T22:29:13.190Z,100722.31
2023-03-15T22:31:40.990Z,100825.72
2023-03-15T22:34:08.988Z,100800.03
2023-03-15T22:36:36.813Z,100789.47
2023-03-15T22:39:04.907Z,100825.66
2023-03-15T22:41:32.718Z,100830.06
2023-03-15T22:44:00.536Z,100817.63
2023-03-15T22:46:34.796Z,100831.78
2023-03-15T22:49:03.485Z,100821.19
2023-03-15T22:51:31.263Z,100828.22
2023-03-15T22:53:59.284Z,100831.72
2023-03-15T22:56:27.152Z,100858.13
2023-03-15T22:58:55.523Z,100832.28
2023-03-15T23:01:23.470Z,100810.16
2023-03-15T23:03:52.868Z,100841.94
2023-03-15T23:06:21.114Z,100848.09
2023-03-15T23:08:49.314Z,100829.66
2023-03-15T23:11:17.191Z,100849.94
2023-03-15T23:13:48.291Z,100854.31
2023-03-15T23:16:16.591Z,100787.19
2023-03-15T23:18:45.250Z,100848.13
2023-03-15T23:21:15.513Z,100832.28
2023-03-15T23:23:43.793Z,100834.03
2023-03-15T23:26:15.233Z,100857.88
2023-03-15T23:28:43.769Z,100837.59
2023-03-15T23:31:11.930Z,100819.06
2023-03-15T23:33:39.765Z,100718.41
2023-03-15T23:36:08.370Z,100838.69
2023-03-15T23:38:37.659Z,100861.53
2023-03-15T23:41:05.940Z,100830.59
2023-03-15T23:43:34.412Z,100854.50
2023-03-15T23:46:04.865Z,100827.19
2023-03-15T23:48:35.192Z,100834.25
2023-03-15T23:51:04.180Z,100844.75
2023-03-15T23:53:32.440Z,100859.75
2023-03-15T23:56:01.832Z,100858.91
2023-03-15T23:58:29.996Z,100850.97
